Terminal Aerodrome Forecast
Issued by NWS Wilmington, NC

Home | Current Version | Previous Version | Text Only | Print | Product List | Glossary On
Versions: 1 2 3 4 5 6 7 8 9 10 11 12 13 14
457
FTUS42 KILM 191120
TAFILM
TAF
KILM 191120Z 1912/2012 04007KT P6SM SCT050 SCT250
      TEMPO 1912/1914 BKN050
     FM192200 VRB03KT P6SM FEW250
      TEMPO 2010/2012 4SM BR=

USA.gov is the U.S. government's official web portal to all federal, state and local government web resources and services.